sensor_id;sensor_type;location;lat;lon;timestamp;P1;durP1;ratioP1;P2;durP2;ratioP2
15287;SDS011;7745;48.708;9.026;2023-11-19T00:00:06;3.50;;;3.20;;
15287;SDS011;7745;48.708;9.026;2023-11-19T00:02:37;5.07;;;3.20;;
15287;SDS011;7745;48.708;9.026;2023-11-19T00:05:04;4.37;;;3.73;;
15287;SDS011;7745;48.708;9.026;2023-11-19T00:07:34;4.10;;;3.07;;
15287;SDS011;7745;48.708;9.026;2023-11-19T00:10:01;3.30;;;3.00;;
15287;SDS011;7745;48.708;9.026;2023-11-19T00:12:35;4.50;;;3.37;;
15287;SDS011;7745;48.708;9.026;2023-11-19T00:15:03;3.57;;;2.90;;
15287;SDS011;7745;48.708;9.026;2023-11-19T00:17:30;4.87;;;3.23;;
15287;SDS011;7745;48.708;9.026;2023-11-19T00:19:59;4.40;;;3.13;;
15287;SDS011;7745;48.708;9.026;2023-11-19T00:22:26;4.67;;;3.10;;
15287;SDS011;7745;48.708;9.026;2023-11-19T00:24:51;5.60;;;3.10;;
15287;SDS011;7745;48.708;9.026;2023-11-19T00:27:18;5.80;;;3.03;;
15287;SDS011;7745;48.708;9.026;2023-11-19T00:29:45;4.17;;;3.50;;
15287;SDS011;7745;48.708;9.026;2023-11-19T00:32:12;4.70;;;3.27;;
15287;SDS011;7745;48.708;9.026;2023-11-19T00:34:43;3.30;;;2.80;;
15287;SDS011;7745;48.708;9.026;2023-11-19T00:37:11;5.40;;;3.13;;
15287;SDS011;7745;48.708;9.026;2023-11-19T00:39:38;6.10;;;3.47;;
15287;SDS011;7745;48.708;9.026;2023-11-19T00:42:05;4.93;;;3.00;;
15287;SDS011;7745;48.708;9.026;2023-11-19T00:44:32;5.10;;;2.40;;
15287;SDS011;7745;48.708;9.026;2023-11-19T00:46:59;2.37;;;2.13;;
15287;SDS011;7745;48.708;9.026;2023-11-19T00:49:25;4.67;;;2.33;;
15287;SDS011;7745;48.708;9.026;2023-11-19T00:51:52;4.13;;;2.27;;
15287;SDS011;7745;48.708;9.026;2023-11-19T00:54:20;2.43;;;2.13;;
15287;SDS011;7745;48.708;9.026;2023-11-19T00:56:50;2.33;;;1.70;;
15287;SDS011;7745;48.708;9.026;2023-11-19T00:59:17;2.70;;;1.60;;
15287;SDS011;7745;48.708;9.026;2023-11-19T01:01:44;2.27;;;1.60;;
15287;SDS011;7745;48.708;9.026;2023-11-19T01:04:11;2.53;;;1.70;;
15287;SDS011;7745;48.708;9.026;2023-11-19T01:06:38;1.33;;;1.23;;
15287;SDS011;7745;48.708;9.026;2023-11-19T01:09:04;1.30;;;1.00;;
15287;SDS011;7745;48.708;9.026;2023-11-19T01:11:33;3.03;;;1.10;;
15287;SDS011;7745;48.708;9.026;2023-11-19T01:13:59;1.13;;;0.93;;
15287;SDS011;7745;48.708;9.026;2023-11-19T01:16:26;1.70;;;1.00;;
15287;SDS011;7745;48.708;9.026;2023-11-19T01:18:53;1.13;;;0.77;;
15287;SDS011;7745;48.708;9.026;2023-11-19T01:21:21;0.77;;;0.70;;
15287;SDS011;7745;48.708;9.026;2023-11-19T01:23:48;1.07;;;0.90;;
15287;SDS011;7745;48.708;9.026;2023-11-19T01:26:14;1.93;;;0.77;;
15287;SDS011;7745;48.708;9.026;2023-11-19T01:28:41;2.50;;;0.80;;
15287;SDS011;7745;48.708;9.026;2023-11-19T01:31:10;0.90;;;0.70;;
15287;SDS011;7745;48.708;9.026;2023-11-19T01:33:37;0.90;;;0.80;;
15287;SDS011;7745;48.708;9.026;2023-11-19T01:36:05;1.33;;;0.80;;
15287;SDS011;7745;48.708;9.026;2023-11-19T01:38:33;1.07;;;0.73;;
15287;SDS011;7745;48.708;9.026;2023-11-19T01:40:59;1.07;;;0.87;;
15287;SDS011;7745;48.708;9.026;2023-11-19T01:43:31;0.60;;;0.60;;
15287;SDS011;7745;48.708;9.026;2023-11-19T01:46:01;0.80;;;0.63;;
15287;SDS011;7745;48.708;9.026;2023-11-19T01:48:28;1.53;;;0.83;;
15287;SDS011;7745;48.708;9.026;2023-11-19T01:50:55;0.70;;;0.60;;
15287;SDS011;7745;48.708;9.026;2023-11-19T01:53:23;1.37;;;1.00;;
15287;SDS011;7745;48.708;9.026;2023-11-19T01:55:50;1.10;;;1.00;;
15287;SDS011;7745;48.708;9.026;2023-11-19T01:58:20;2.27;;;0.97;;
15287;SDS011;7745;48.708;9.026;2023-11-19T02:00:46;2.50;;;1.20;;
15287;SDS011;7745;48.708;9.026;2023-11-19T02:03:15;3.07;;;1.33;;
15287;SDS011;7745;48.708;9.026;2023-11-19T02:05:42;2.57;;;1.10;;
15287;SDS011;7745;48.708;9.026;2023-11-19T02:08:09;1.93;;;1.00;;
15287;SDS011;7745;48.708;9.026;2023-11-19T02:10:38;0.73;;;0.70;;
15287;SDS011;7745;48.708;9.026;2023-11-19T02:13:05;1.20;;;1.00;;
15287;SDS011;7745;48.708;9.026;2023-11-19T02:15:32;2.77;;;0.70;;
15287;SDS011;7745;48.708;9.026;2023-11-19T02:20:46;2.07;;;0.93;;
15287;SDS011;7745;48.708;9.026;2023-11-19T02:23:14;1.17;;;0.80;;
15287;SDS011;7745;48.708;9.026;2023-11-19T02:25:41;1.90;;;0.80;;
15287;SDS011;7745;48.708;9.026;2023-11-19T02:28:14;1.00;;;0.80;;
15287;SDS011;7745;48.708;9.026;2023-11-19T02:30:41;1.63;;;0.60;;
15287;SDS011;7745;48.708;9.026;2023-11-19T02:33:08;0.60;;;0.60;;
15287;SDS011;7745;48.708;9.026;2023-11-19T02:35:35;1.97;;;0.70;;
15287;SDS011;7745;48.708;9.026;2023-11-19T02:38:01;0.83;;;0.70;;
15287;SDS011;7745;48.708;9.026;2023-11-19T02:40:29;2.20;;;0.73;;
15287;SDS011;7745;48.708;9.026;2023-11-19T02:42:56;0.90;;;0.60;;
15287;SDS011;7745;48.708;9.026;2023-11-19T02:45:24;0.60;;;0.60;;
15287;SDS011;7745;48.708;9.026;2023-11-19T02:47:52;1.73;;;0.50;;
15287;SDS011;7745;48.708;9.026;2023-11-19T02:50:20;1.30;;;0.70;;
15287;SDS011;7745;48.708;9.026;2023-11-19T02:52:50;2.60;;;0.70;;
15287;SDS011;7745;48.708;9.026;2023-11-19T02:55:18;1.63;;;0.50;;
15287;SDS011;7745;48.708;9.026;2023-11-19T02:57:45;1.00;;;0.60;;
15287;SDS011;7745;48.708;9.026;2023-11-19T03:00:14;1.07;;;0.60;;
15287;SDS011;7745;48.708;9.026;2023-11-19T03:02:42;0.60;;;0.50;;
15287;SDS011;7745;48.708;9.026;2023-11-19T03:05:11;1.40;;;0.60;;
15287;SDS011;7745;48.708;9.026;2023-11-19T03:07:39;1.13;;;0.50;;
15287;SDS011;7745;48.708;9.026;2023-11-19T03:10:08;1.20;;;0.50;;
15287;SDS011;7745;48.708;9.026;2023-11-19T03:12:38;0.53;;;0.50;;
15287;SDS011;7745;48.708;9.026;2023-11-19T03:15:05;2.13;;;0.60;;
15287;SDS011;7745;48.708;9.026;2023-11-19T03:17:34;0.97;;;0.40;;
15287;SDS011;7745;48.708;9.026;2023-11-19T03:20:03;0.40;;;0.40;;
15287;SDS011;7745;48.708;9.026;2023-11-19T03:22:34;0.97;;;0.50;;
15287;SDS011;7745;48.708;9.026;2023-11-19T03:25:03;1.03;;;0.60;;
15287;SDS011;7745;48.708;9.026;2023-11-19T03:27:33;0.30;;;0.30;;
15287;SDS011;7745;48.708;9.026;2023-11-19T03:30:00;0.93;;;0.50;;
15287;SDS011;7745;48.708;9.026;2023-11-19T03:32:27;0.93;;;0.60;;
15287;SDS011;7745;48.708;9.026;2023-11-19T03:34:54;0.50;;;0.50;;
15287;SDS011;7745;48.708;9.026;2023-11-19T03:37:22;1.20;;;0.70;;
15287;SDS011;7745;48.708;9.026;2023-11-19T03:39:50;1.37;;;0.60;;
15287;SDS011;7745;48.708;9.026;2023-11-19T03:42:18;1.07;;;0.60;;
15287;SDS011;7745;48.708;9.026;2023-11-19T03:44:45;1.27;;;1.10;;
15287;SDS011;7745;48.708;9.026;2023-11-19T03:47:12;2.33;;;1.60;;
15287;SDS011;7745;48.708;9.026;2023-11-19T03:49:39;3.27;;;2.80;;
15287;SDS011;7745;48.708;9.026;2023-11-19T03:52:05;3.40;;;2.07;;
15287;SDS011;7745;48.708;9.026;2023-11-19T03:54:35;2.13;;;1.30;;
15287;SDS011;7745;48.708;9.026;2023-11-19T03:57:02;1.20;;;0.97;;
15287;SDS011;7745;48.708;9.026;2023-11-19T03:59:30;1.13;;;0.67;;
15287;SDS011;7745;48.708;9.026;2023-11-19T04:01:58;0.77;;;0.60;;
15287;SDS011;7745;48.708;9.026;2023-11-19T04:04:25;0.50;;;0.50;;
15287;SDS011;7745;48.708;9.026;2023-11-19T04:06:52;0.73;;;0.50;;
15287;SDS011;7745;48.708;9.026;2023-11-19T04:09:19;0.60;;;0.60;;
15287;SDS011;7745;48.708;9.026;2023-11-19T04:11:47;1.23;;;0.40;;
15287;SDS011;7745;48.708;9.026;2023-11-19T04:14:14;0.97;;;0.50;;
15287;SDS011;7745;48.708;9.026;2023-11-19T04:16:43;0.30;;;0.30;;
15287;SDS011;7745;48.708;9.026;2023-11-19T04:19:10;1.13;;;0.40;;
15287;SDS011;7745;48.708;9.026;2023-11-19T04:21:36;1.97;;;0.40;;
15287;SDS011;7745;48.708;9.026;2023-11-19T04:24:06;0.40;;;0.40;;
15287;SDS011;7745;48.708;9.026;2023-11-19T04:26:33;0.37;;;0.30;;
15287;SDS011;7745;48.708;9.026;2023-11-19T04:29:03;1.23;;;0.40;;
15287;SDS011;7745;48.708;9.026;2023-11-19T04:31:29;0.40;;;0.20;;
15287;SDS011;7745;48.708;9.026;2023-11-19T04:33:57;0.20;;;0.20;;
15287;SDS011;7745;48.708;9.026;2023-11-19T04:36:25;0.73;;;0.27;;
15287;SDS011;7745;48.708;9.026;2023-11-19T04:38:52;0.30;;;0.30;;
15287;SDS011;7745;48.708;9.026;2023-11-19T04:41:19;0.60;;;0.47;;
15287;SDS011;7745;48.708;9.026;2023-11-19T04:43:46;0.77;;;0.30;;
15287;SDS011;7745;48.708;9.026;2023-11-19T04:46:14;1.23;;;0.30;;
15287;SDS011;7745;48.708;9.026;2023-11-19T04:48:40;0.53;;;0.30;;
15287;SDS011;7745;48.708;9.026;2023-11-19T04:51:07;0.20;;;0.20;;
15287;SDS011;7745;48.708;9.026;2023-11-19T04:53:35;0.50;;;0.20;;
15287;SDS011;7745;48.708;9.026;2023-11-19T04:56:07;0.30;;;0.30;;
15287;SDS011;7745;48.708;9.026;2023-11-19T04:58:34;0.20;;;0.20;;
15287;SDS011;7745;48.708;9.026;2023-11-19T05:01:02;0.30;;;0.20;;
15287;SDS011;7745;48.708;9.026;2023-11-19T05:03:31;0.30;;;0.20;;
15287;SDS011;7745;48.708;9.026;2023-11-19T05:05:58;0.30;;;0.10;;
15287;SDS011;7745;48.708;9.026;2023-11-19T05:08:25;0.27;;;0.20;;
15287;SDS011;7745;48.708;9.026;2023-11-19T05:10:52;0.80;;;0.30;;
15287;SDS011;7745;48.708;9.026;2023-11-19T05:13:18;3.80;;;0.50;;
15287;SDS011;7745;48.708;9.026;2023-11-19T05:15:45;0.30;;;0.30;;
15287;SDS011;7745;48.708;9.026;2023-11-19T05:18:12;0.37;;;0.20;;
15287;SDS011;7745;48.708;9.026;2023-11-19T05:20:40;0.23;;;0.23;;
15287;SDS011;7745;48.708;9.026;2023-11-19T05:23:07;0.30;;;0.23;;
15287;SDS011;7745;48.708;9.026;2023-11-19T05:25:34;0.70;;;0.20;;
15287;SDS011;7745;48.708;9.026;2023-11-19T05:28:02;0.77;;;0.20;;
15287;SDS011;7745;48.708;9.026;2023-11-19T05:30:29;0.90;;;0.30;;
15287;SDS011;7745;48.708;9.026;2023-11-19T05:32:56;0.30;;;0.20;;
15287;SDS011;7745;48.708;9.026;2023-11-19T05:35:22;0.40;;;0.20;;
15287;SDS011;7745;48.708;9.026;2023-11-19T05:37:51;0.60;;;0.40;;
15287;SDS011;7745;48.708;9.026;2023-11-19T05:40:18;0.97;;;0.30;;
15287;SDS011;7745;48.708;9.026;2023-11-19T05:42:45;0.70;;;0.20;;
15287;SDS011;7745;48.708;9.026;2023-11-19T05:45:12;2.27;;;0.20;;
15287;SDS011;7745;48.708;9.026;2023-11-19T05:47:39;0.30;;;0.30;;
15287;SDS011;7745;48.708;9.026;2023-11-19T05:50:07;0.10;;;0.10;;
15287;SDS011;7745;48.708;9.026;2023-11-19T05:52:35;0.60;;;0.30;;
15287;SDS011;7745;48.708;9.026;2023-11-19T05:55:02;0.37;;;0.30;;
15287;SDS011;7745;48.708;9.026;2023-11-19T05:57:34;0.73;;;0.30;;
15287;SDS011;7745;48.708;9.026;2023-11-19T06:00:01;1.73;;;0.30;;
15287;SDS011;7745;48.708;9.026;2023-11-19T06:02:28;0.57;;;0.20;;
15287;SDS011;7745;48.708;9.026;2023-11-19T06:04:55;0.60;;;0.23;;
15287;SDS011;7745;48.708;9.026;2023-11-19T06:07:22;0.30;;;0.30;;
15287;SDS011;7745;48.708;9.026;2023-11-19T06:09:50;1.33;;;0.30;;
15287;SDS011;7745;48.708;9.026;2023-11-19T06:12:18;0.20;;;0.20;;
15287;SDS011;7745;48.708;9.026;2023-11-19T06:14:45;1.67;;;0.30;;
15287;SDS011;7745;48.708;9.026;2023-11-19T06:17:12;2.57;;;0.30;;
15287;SDS011;7745;48.708;9.026;2023-11-19T06:19:38;0.43;;;0.20;;
15287;SDS011;7745;48.708;9.026;2023-11-19T06:22:05;0.50;;;0.30;;
15287;SDS011;7745;48.708;9.026;2023-11-19T06:24:32;1.20;;;0.27;;
15287;SDS011;7745;48.708;9.026;2023-11-19T06:26:59;0.33;;;0.20;;
15287;SDS011;7745;48.708;9.026;2023-11-19T06:29:27;0.30;;;0.27;;
15287;SDS011;7745;48.708;9.026;2023-11-19T06:31:54;0.20;;;0.13;;
15287;SDS011;7745;48.708;9.026;2023-11-19T06:34:21;0.70;;;0.30;;
15287;SDS011;7745;48.708;9.026;2023-11-19T06:36:48;0.60;;;0.20;;
15287;SDS011;7745;48.708;9.026;2023-11-19T06:39:14;0.33;;;0.23;;
15287;SDS011;7745;48.708;9.026;2023-11-19T06:41:44;2.63;;;0.50;;
15287;SDS011;7745;48.708;9.026;2023-11-19T06:44:11;0.77;;;0.30;;
15287;SDS011;7745;48.708;9.026;2023-11-19T06:46:40;0.40;;;0.30;;
15287;SDS011;7745;48.708;9.026;2023-11-19T06:49:06;1.17;;;0.20;;
15287;SDS011;7745;48.708;9.026;2023-11-19T06:51:34;1.80;;;0.30;;
15287;SDS011;7745;48.708;9.026;2023-11-19T06:54:01;0.50;;;0.33;;
15287;SDS011;7745;48.708;9.026;2023-11-19T06:56:27;1.33;;;0.40;;
15287;SDS011;7745;48.708;9.026;2023-11-19T06:58:54;0.50;;;0.20;;
15287;SDS011;7745;48.708;9.026;2023-11-19T07:01:21;2.53;;;0.47;;
15287;SDS011;7745;48.708;9.026;2023-11-19T07:03:49;1.80;;;0.40;;
15287;SDS011;7745;48.708;9.026;2023-11-19T07:06:16;0.60;;;0.23;;
15287;SDS011;7745;48.708;9.026;2023-11-19T07:08:43;0.23;;;0.23;;
15287;SDS011;7745;48.708;9.026;2023-11-19T07:11:13;0.43;;;0.40;;
15287;SDS011;7745;48.708;9.026;2023-11-19T07:13:41;1.80;;;0.40;;
15287;SDS011;7745;48.708;9.026;2023-11-19T07:16:11;1.13;;;0.50;;
15287;SDS011;7745;48.708;9.026;2023-11-19T07:18:40;0.80;;;0.50;;
15287;SDS011;7745;48.708;9.026;2023-11-19T07:21:10;1.53;;;0.40;;
15287;SDS011;7745;48.708;9.026;2023-11-19T07:23:37;0.67;;;0.50;;
15287;SDS011;7745;48.708;9.026;2023-11-19T07:26:04;0.80;;;0.50;;
15287;SDS011;7745;48.708;9.026;2023-11-19T07:28:34;1.03;;;0.40;;
15287;SDS011;7745;48.708;9.026;2023-11-19T07:31:05;1.97;;;0.47;;
15287;SDS011;7745;48.708;9.026;2023-11-19T07:33:33;2.87;;;0.47;;
15287;SDS011;7745;48.708;9.026;2023-11-19T07:36:00;1.00;;;0.53;;
15287;SDS011;7745;48.708;9.026;2023-11-19T07:38:28;0.47;;;0.37;;
15287;SDS011;7745;48.708;9.026;2023-11-19T07:40:55;0.67;;;0.30;;
15287;SDS011;7745;48.708;9.026;2023-11-19T07:43:22;2.40;;;0.30;;
15287;SDS011;7745;48.708;9.026;2023-11-19T07:45:48;4.10;;;0.50;;
15287;SDS011;7745;48.708;9.026;2023-11-19T07:48:15;0.50;;;0.50;;
15287;SDS011;7745;48.708;9.026;2023-11-19T07:50:53;0.63;;;0.50;;
15287;SDS011;7745;48.708;9.026;2023-11-19T07:53:20;1.50;;;0.90;;
15287;SDS011;7745;48.708;9.026;2023-11-19T07:55:48;1.53;;;0.50;;
15287;SDS011;7745;48.708;9.026;2023-11-19T07:58:24;3.70;;;0.50;;
15287;SDS011;7745;48.708;9.026;2023-11-19T08:00:53;0.30;;;0.30;;
15287;SDS011;7745;48.708;9.026;2023-11-19T08:03:19;0.80;;;0.33;;
15287;SDS011;7745;48.708;9.026;2023-11-19T08:05:48;0.70;;;0.30;;
15287;SDS011;7745;48.708;9.026;2023-11-19T08:08:15;1.27;;;0.40;;
15287;SDS011;7745;48.708;9.026;2023-11-19T08:10:42;0.97;;;0.43;;
15287;SDS011;7745;48.708;9.026;2023-11-19T08:13:11;1.33;;;0.47;;
15287;SDS011;7745;48.708;9.026;2023-11-19T08:15:38;0.93;;;0.30;;
15287;SDS011;7745;48.708;9.026;2023-11-19T08:18:05;0.30;;;0.30;;
15287;SDS011;7745;48.708;9.026;2023-11-19T08:20:32;0.87;;;0.30;;
15287;SDS011;7745;48.708;9.026;2023-11-19T08:22:59;1.17;;;0.30;;
15287;SDS011;7745;48.708;9.026;2023-11-19T08:25:26;0.67;;;0.40;;
15287;SDS011;7745;48.708;9.026;2023-11-19T08:27:55;0.50;;;0.40;;
15287;SDS011;7745;48.708;9.026;2023-11-19T08:30:23;0.90;;;0.50;;
15287;SDS011;7745;48.708;9.026;2023-11-19T08:32:50;1.13;;;0.20;;
15287;SDS011;7745;48.708;9.026;2023-11-19T08:35:16;0.73;;;0.50;;
15287;SDS011;7745;48.708;9.026;2023-11-19T08:37:43;0.90;;;0.60;;
15287;SDS011;7745;48.708;9.026;2023-11-19T08:40:11;0.90;;;0.50;;
15287;SDS011;7745;48.708;9.026;2023-11-19T08:42:39;0.83;;;0.50;;
15287;SDS011;7745;48.708;9.026;2023-11-19T08:45:06;0.83;;;0.40;;
15287;SDS011;7745;48.708;9.026;2023-11-19T08:47:37;3.37;;;1.27;;
15287;SDS011;7745;48.708;9.026;2023-11-19T08:50:05;2.20;;;0.60;;
15287;SDS011;7745;48.708;9.026;2023-11-19T08:52:33;0.67;;;0.40;;
15287;SDS011;7745;48.708;9.026;2023-11-19T08:55:00;2.37;;;0.60;;
15287;SDS011;7745;48.708;9.026;2023-11-19T08:57:27;3.93;;;0.67;;
15287;SDS011;7745;48.708;9.026;2023-11-19T08:59:54;0.70;;;0.57;;
15287;SDS011;7745;48.708;9.026;2023-11-19T09:02:20;2.07;;;0.53;;
15287;SDS011;7745;48.708;9.026;2023-11-19T09:04:49;4.07;;;0.70;;
15287;SDS011;7745;48.708;9.026;2023-11-19T09:07:15;0.50;;;0.47;;
15287;SDS011;7745;48.708;9.026;2023-11-19T09:09:42;0.90;;;0.50;;
15287;SDS011;7745;48.708;9.026;2023-11-19T09:12:09;2.10;;;0.50;;
15287;SDS011;7745;48.708;9.026;2023-11-19T09:14:36;0.87;;;0.57;;
15287;SDS011;7745;48.708;9.026;2023-11-19T09:17:03;1.13;;;0.40;;
15287;SDS011;7745;48.708;9.026;2023-11-19T09:19:32;1.53;;;0.60;;
15287;SDS011;7745;48.708;9.026;2023-11-19T09:22:02;0.53;;;0.37;;
15287;SDS011;7745;48.708;9.026;2023-11-19T09:24:29;0.97;;;0.40;;
15287;SDS011;7745;48.708;9.026;2023-11-19T09:26:56;1.37;;;0.30;;
15287;SDS011;7745;48.708;9.026;2023-11-19T09:29:22;1.10;;;0.40;;
15287;SDS011;7745;48.708;9.026;2023-11-19T09:31:49;1.77;;;0.50;;
15287;SDS011;7745;48.708;9.026;2023-11-19T09:34:16;1.80;;;0.40;;
15287;SDS011;7745;48.708;9.026;2023-11-19T09:36:43;1.33;;;0.63;;
15287;SDS011;7745;48.708;9.026;2023-11-19T09:39:11;1.10;;;0.30;;
15287;SDS011;7745;48.708;9.026;2023-11-19T09:41:39;1.77;;;0.53;;
15287;SDS011;7745;48.708;9.026;2023-11-19T09:44:07;0.70;;;0.50;;
15287;SDS011;7745;48.708;9.026;2023-11-19T09:46:35;0.60;;;0.40;;
15287;SDS011;7745;48.708;9.026;2023-11-19T09:49:02;4.37;;;0.53;;
15287;SDS011;7745;48.708;9.026;2023-11-19T09:51:32;0.73;;;0.40;;
15287;SDS011;7745;48.708;9.026;2023-11-19T09:53:59;0.90;;;0.60;;
15287;SDS011;7745;48.708;9.026;2023-11-19T09:56:27;1.17;;;0.73;;
15287;SDS011;7745;48.708;9.026;2023-11-19T09:58:55;1.53;;;0.90;;
15287;SDS011;7745;48.708;9.026;2023-11-19T10:01:22;1.33;;;1.00;;
15287;SDS011;7745;48.708;9.026;2023-11-19T10:03:50;0.97;;;0.67;;
15287;SDS011;7745;48.708;9.026;2023-11-19T10:06:22;2.67;;;0.80;;
15287;SDS011;7745;48.708;9.026;2023-11-19T10:08:51;1.90;;;0.63;;
15287;SDS011;7745;48.708;9.026;2023-11-19T10:11:19;1.97;;;0.60;;
15287;SDS011;7745;48.708;9.026;2023-11-19T10:13:47;0.80;;;0.60;;
15287;SDS011;7745;48.708;9.026;2023-11-19T10:16:15;2.23;;;0.60;;
15287;SDS011;7745;48.708;9.026;2023-11-19T10:18:43;1.20;;;0.50;;
15287;SDS011;7745;48.708;9.026;2023-11-19T10:21:12;1.17;;;0.53;;
15287;SDS011;7745;48.708;9.026;2023-11-19T10:23:48;2.53;;;0.60;;
15287;SDS011;7745;48.708;9.026;2023-11-19T10:26:17;1.20;;;0.60;;
15287;SDS011;7745;48.708;9.026;2023-11-19T10:28:45;1.17;;;0.67;;
15287;SDS011;7745;48.708;9.026;2023-11-19T10:31:13;1.73;;;0.40;;
15287;SDS011;7745;48.708;9.026;2023-11-19T10:33:41;1.83;;;0.60;;
15287;SDS011;7745;48.708;9.026;2023-11-19T10:36:10;1.63;;;0.50;;
15287;SDS011;7745;48.708;9.026;2023-11-19T10:38:38;1.17;;;0.40;;
15287;SDS011;7745;48.708;9.026;2023-11-19T10:41:05;0.83;;;0.20;;
15287;SDS011;7745;48.708;9.026;2023-11-19T10:43:42;0.30;;;0.20;;
15287;SDS011;7745;48.708;9.026;2023-11-19T10:46:11;0.83;;;0.20;;
15287;SDS011;7745;48.708;9.026;2023-11-19T10:48:39;0.77;;;0.20;;
15287;SDS011;7745;48.708;9.026;2023-11-19T10:51:06;0.47;;;0.20;;
15287;SDS011;7745;48.708;9.026;2023-11-19T10:53:35;0.80;;;0.30;;
15287;SDS011;7745;48.708;9.026;2023-11-19T10:56:04;2.93;;;0.40;;
15287;SDS011;7745;48.708;9.026;2023-11-19T10:58:36;1.00;;;0.30;;
15287;SDS011;7745;48.708;9.026;2023-11-19T11:01:06;0.27;;;0.10;;
15287;SDS011;7745;48.708;9.026;2023-11-19T11:03:39;1.27;;;0.50;;
15287;SDS011;7745;48.708;9.026;2023-11-19T11:06:07;2.13;;;0.30;;
15287;SDS011;7745;48.708;9.026;2023-11-19T11:08:36;2.17;;;0.30;;
15287;SDS011;7745;48.708;9.026;2023-11-19T11:11:05;1.53;;;0.47;;
15287;SDS011;7745;48.708;9.026;2023-11-19T11:13:35;1.13;;;0.50;;
15287;SDS011;7745;48.708;9.026;2023-11-19T11:16:05;3.37;;;1.40;;
15287;SDS011;7745;48.708;9.026;2023-11-19T11:18:35;4.83;;;2.30;;
15287;SDS011;7745;48.708;9.026;2023-11-19T11:21:03;9.30;;;3.37;;
15287;SDS011;7745;48.708;9.026;2023-11-19T11:23:37;7.10;;;3.20;;
15287;SDS011;7745;48.708;9.026;2023-11-19T11:26:42;3.13;;;0.60;;
15287;SDS011;7745;48.708;9.026;2023-11-19T11:29:24;1.23;;;0.63;;
15287;SDS011;7745;48.708;9.026;2023-11-19T11:31:59;2.30;;;0.83;;
15287;SDS011;7745;48.708;9.026;2023-11-19T11:34:44;1.00;;;0.47;;
15287;SDS011;7745;48.708;9.026;2023-11-19T11:37:26;3.47;;;0.50;;
15287;SDS011;7745;48.708;9.026;2023-11-19T11:39:58;1.87;;;0.67;;
15287;SDS011;7745;48.708;9.026;2023-11-19T11:42:32;2.47;;;0.67;;
15287;SDS011;7745;48.708;9.026;2023-11-19T11:45:03;1.53;;;0.60;;
15287;SDS011;7745;48.708;9.026;2023-11-19T11:50:46;0.50;;;0.30;;
15287;SDS011;7745;48.708;9.026;2023-11-19T11:53:15;1.20;;;0.40;;
15287;SDS011;7745;48.708;9.026;2023-11-19T11:55:53;1.77;;;0.40;;
15287;SDS011;7745;48.708;9.026;2023-11-19T11:58:31;1.40;;;0.43;;
15287;SDS011;7745;48.708;9.026;2023-11-19T12:00:58;1.10;;;0.50;;
15287;SDS011;7745;48.708;9.026;2023-11-19T12:03:27;1.80;;;0.60;;
15287;SDS011;7745;48.708;9.026;2023-11-19T12:05:57;2.03;;;0.40;;
15287;SDS011;7745;48.708;9.026;2023-11-19T12:08:25;0.63;;;0.40;;
15287;SDS011;7745;48.708;9.026;2023-11-19T12:10:53;1.80;;;0.40;;
15287;SDS011;7745;48.708;9.026;2023-11-19T12:13:23;1.30;;;0.40;;
15287;SDS011;7745;48.708;9.026;2023-11-19T12:16:08;1.37;;;0.50;;
15287;SDS011;7745;48.708;9.026;2023-11-19T12:18:36;1.20;;;0.60;;
15287;SDS011;7745;48.708;9.026;2023-11-19T12:21:07;2.03;;;0.57;;
15287;SDS011;7745;48.708;9.026;2023-11-19T12:23:35;2.50;;;0.80;;
15287;SDS011;7745;48.708;9.026;2023-11-19T12:26:20;2.63;;;0.57;;
15287;SDS011;7745;48.708;9.026;2023-11-19T12:28:57;2.80;;;0.53;;
15287;SDS011;7745;48.708;9.026;2023-11-19T12:31:24;2.53;;;0.93;;
15287;SDS011;7745;48.708;9.026;2023-11-19T12:33:51;2.47;;;0.63;;
15287;SDS011;7745;48.708;9.026;2023-11-19T12:36:19;1.97;;;0.50;;
15287;SDS011;7745;48.708;9.026;2023-11-19T12:38:46;0.60;;;0.50;;
15287;SDS011;7745;48.708;9.026;2023-11-19T12:41:13;1.57;;;0.40;;
15287;SDS011;7745;48.708;9.026;2023-11-19T12:43:45;1.10;;;0.40;;
15287;SDS011;7745;48.708;9.026;2023-11-19T12:46:18;1.67;;;0.60;;
15287;SDS011;7745;48.708;9.026;2023-11-19T12:48:46;1.70;;;0.60;;
15287;SDS011;7745;48.708;9.026;2023-11-19T12:51:13;0.97;;;0.40;;
15287;SDS011;7745;48.708;9.026;2023-11-19T12:53:50;0.80;;;0.40;;
15287;SDS011;7745;48.708;9.026;2023-11-19T12:56:19;1.77;;;0.50;;
15287;SDS011;7745;48.708;9.026;2023-11-19T12:58:46;2.23;;;0.50;;
15287;SDS011;7745;48.708;9.026;2023-11-19T13:01:15;1.13;;;0.50;;
15287;SDS011;7745;48.708;9.026;2023-11-19T13:03:42;2.33;;;0.40;;
15287;SDS011;7745;48.708;9.026;2023-11-19T13:06:10;1.87;;;0.50;;
15287;SDS011;7745;48.708;9.026;2023-11-19T13:08:39;0.70;;;0.40;;
15287;SDS011;7745;48.708;9.026;2023-11-19T13:11:08;0.60;;;0.30;;
15287;SDS011;7745;48.708;9.026;2023-11-19T13:16:21;1.00;;;0.60;;
15287;SDS011;7745;48.708;9.026;2023-11-19T13:18:48;1.87;;;0.60;;
15287;SDS011;7745;48.708;9.026;2023-11-19T13:21:16;1.53;;;0.80;;
15287;SDS011;7745;48.708;9.026;2023-11-19T13:23:43;2.20;;;0.70;;
15287;SDS011;7745;48.708;9.026;2023-11-19T13:26:12;2.30;;;1.00;;
15287;SDS011;7745;48.708;9.026;2023-11-19T13:28:38;1.40;;;0.80;;
15287;SDS011;7745;48.708;9.026;2023-11-19T13:31:05;3.17;;;1.03;;
15287;SDS011;7745;48.708;9.026;2023-11-19T13:33:32;1.80;;;0.57;;
15287;SDS011;7745;48.708;9.026;2023-11-19T13:35:59;4.70;;;0.80;;
15287;SDS011;7745;48.708;9.026;2023-11-19T13:38:30;1.47;;;0.87;;
15287;SDS011;7745;48.708;9.026;2023-11-19T13:40:57;2.00;;;0.50;;
15287;SDS011;7745;48.708;9.026;2023-11-19T13:43:26;1.77;;;0.50;;
15287;SDS011;7745;48.708;9.026;2023-11-19T13:45:53;1.60;;;0.70;;
15287;SDS011;7745;48.708;9.026;2023-11-19T13:48:20;1.30;;;0.70;;
15287;SDS011;7745;48.708;9.026;2023-11-19T13:50:47;2.10;;;1.03;;
15287;SDS011;7745;48.708;9.026;2023-11-19T13:53:14;1.13;;;0.60;;
15287;SDS011;7745;48.708;9.026;2023-11-19T13:55:41;1.90;;;0.80;;
15287;SDS011;7745;48.708;9.026;2023-11-19T13:58:08;1.57;;;0.70;;
15287;SDS011;7745;48.708;9.026;2023-11-19T14:00:36;2.33;;;0.70;;
15287;SDS011;7745;48.708;9.026;2023-11-19T14:03:03;0.93;;;0.60;;
15287;SDS011;7745;48.708;9.026;2023-11-19T14:05:30;2.07;;;0.73;;
15287;SDS011;7745;48.708;9.026;2023-11-19T14:07:57;1.77;;;0.80;;
15287;SDS011;7745;48.708;9.026;2023-11-19T14:10:24;2.30;;;0.80;;
15287;SDS011;7745;48.708;9.026;2023-11-19T14:12:50;1.63;;;1.00;;
15287;SDS011;7745;48.708;9.026;2023-11-19T14:15:17;1.43;;;0.60;;
15287;SDS011;7745;48.708;9.026;2023-11-19T14:17:46;2.73;;;0.90;;
15287;SDS011;7745;48.708;9.026;2023-11-19T14:20:12;3.03;;;0.90;;
15287;SDS011;7745;48.708;9.026;2023-11-19T14:22:41;3.00;;;1.00;;
15287;SDS011;7745;48.708;9.026;2023-11-19T14:25:14;1.73;;;0.90;;
15287;SDS011;7745;48.708;9.026;2023-11-19T14:27:45;1.20;;;0.60;;
15287;SDS011;7745;48.708;9.026;2023-11-19T14:30:23;1.00;;;0.53;;
15287;SDS011;7745;48.708;9.026;2023-11-19T14:33:03;1.90;;;0.63;;
15287;SDS011;7745;48.708;9.026;2023-11-19T14:35:39;2.97;;;0.90;;
15287;SDS011;7745;48.708;9.026;2023-11-19T14:38:06;2.47;;;0.67;;
15287;SDS011;7745;48.708;9.026;2023-11-19T14:40:35;3.33;;;1.10;;
15287;SDS011;7745;48.708;9.026;2023-11-19T14:43:02;1.83;;;0.57;;
15287;SDS011;7745;48.708;9.026;2023-11-19T14:45:36;1.13;;;0.60;;
15287;SDS011;7745;48.708;9.026;2023-11-19T14:50:59;1.97;;;0.40;;
15287;SDS011;7745;48.708;9.026;2023-11-19T14:53:28;1.70;;;0.80;;
15287;SDS011;7745;48.708;9.026;2023-11-19T14:56:09;2.13;;;0.60;;
15287;SDS011;7745;48.708;9.026;2023-11-19T14:58:37;2.20;;;0.73;;
15287;SDS011;7745;48.708;9.026;2023-11-19T15:03:51;1.67;;;0.83;;
15287;SDS011;7745;48.708;9.026;2023-11-19T15:06:22;0.87;;;0.43;;
15287;SDS011;7745;48.708;9.026;2023-11-19T15:08:52;1.30;;;0.70;;
15287;SDS011;7745;48.708;9.026;2023-11-19T15:11:19;2.60;;;0.60;;
15287;SDS011;7745;48.708;9.026;2023-11-19T15:13:49;2.57;;;0.70;;
15287;SDS011;7745;48.708;9.026;2023-11-19T15:16:20;1.43;;;0.50;;
15287;SDS011;7745;48.708;9.026;2023-11-19T15:19:02;1.17;;;0.40;;
15287;SDS011;7745;48.708;9.026;2023-11-19T15:21:34;1.23;;;0.60;;